Terminal Aerodrome Forecast
Issued by NWS Goodland, KS

Home | Current Version | Previous Version | Text Only | Print | Product List | Glossary On
Versions: 1 2 3 4 5 6 7 8 9 10 11 12 13 14 15 16 17 18 19 20 21 22 23 24 25 26 27
000
FTUS43 KGLD 210736 AAB
TAFGLD
TAF AMD
KGLD 210736Z 2108/2206 12008KT 6SM BR FEW015
     FM210900 17007KT 3SM BR BKN015
     FM211000 13007KT 1/2SM FG OVC012
     FM211100 16009KT 1/4SM FG OVC003
     FM211500 17015KT P6SM BKN008
     FM211700 17018G26KT P6SM FEW030
     FM220000 16013KT P6SM SCT060 BKN150=

USA.gov is the U.S. government's official web portal to all federal, state and local government web resources and services.